Time;durP1;ratioP1;P1;durP2;ratioP2;P2;SDS_P1;SDS_P2;PMS_P1;PMS_P2;Temp;Humidity;BMP_temperature;BMP_pressure;BME280_temperature;BME280_humidity;BME280_pressure;Samples;Min_cycle;Max_cycle;Signal;HPM_P1;HPM_P2
2021/03/25 00:01:20;;;;;;;1999.90;999.90;;;22.20;70.30;;;;;;5075357;28;20173;-36
2021/03/25 00:03:49;;;;;;;1999.90;999.90;;;22.20;70.30;;;;;;5075380;28;20248;-37
2021/03/25 00:06:17;;;;;;;1999.90;999.90;;;22.20;70.60;;;;;;5075247;28;20180;-36
2021/03/25 00:08:44;;;;;;;1999.90;999.90;;;22.10;71.80;;;;;;5075317;28;20220;-36
2021/03/25 00:11:11;;;;;;;1999.90;999.90;;;22.00;73.00;;;;;;5075176;28;20226;-40
2021/03/25 00:13:38;;;;;;;1999.90;999.90;;;21.90;73.40;;;;;;5075301;28;20165;-38
2021/03/25 00:16:05;;;;;;;1999.90;999.90;;;21.80;73.60;;;;;;5075164;28;20535;-36
2021/03/25 00:18:32;;;;;;;1999.90;999.90;;;21.90;73.60;;;;;;5075276;28;20231;-36
2021/03/25 00:20:59;;;;;;;1999.90;999.90;;;21.80;73.50;;;;;;5075207;28;20184;-36
2021/03/25 00:23:26;;;;;;;1999.90;999.90;;;21.70;74.10;;;;;;5074991;28;20508;-36
2021/03/25 00:25:53;;;;;;;1999.90;999.90;;;21.80;73.30;;;;;;5075029;28;20623;-36
2021/03/25 00:28:20;;;;;;;1999.90;999.90;;;21.70;73.40;;;;;;5074594;28;20296;-39
2021/03/25 00:30:47;;;;;;;1999.90;999.90;;;21.70;73.50;;;;;;5074896;28;20265;-36
2021/03/25 00:33:16;;;;;;;1999.90;999.90;;;21.70;73.70;;;;;;5074839;28;20522;-36
2021/03/25 00:35:44;;;;;;;1999.90;999.90;;;21.60;73.60;;;;;;5074742;28;20540;-36
2021/03/25 00:38:11;;;;;;;1999.90;999.90;;;21.70;72.90;;;;;;5074741;28;20572;-36
2021/03/25 00:40:39;;;;;;;1999.90;999.90;;;21.60;72.80;;;;;;5074678;28;20210;-42
2021/03/25 00:43:08;;;;;;;1999.90;999.90;;;21.60;72.60;;;;;;5074614;28;20171;-36
2021/03/25 00:45:41;;;;;;;1999.90;999.90;;;21.60;73.30;;;;;;5074588;28;20169;-36
2021/03/25 00:48:09;;;;;;;1999.90;999.90;;;21.50;73.60;;;;;;5074512;28;20179;-38
2021/03/25 00:50:42;;;;;;;1999.90;999.90;;;21.40;73.80;;;;;;5074434;28;20183;-42
2021/03/25 00:53:11;;;;;;;1999.90;999.90;;;21.40;73.90;;;;;;5074532;28;20164;-36
2021/03/25 00:55:38;;;;;;;1999.90;999.90;;;21.40;74.10;;;;;;5074347;28;20180;-40
2021/03/25 00:58:05;;;;;;;1999.90;999.90;;;21.40;74.20;;;;;;5074351;28;20173;-36
2021/03/25 01:00:35;;;;;;;1999.90;999.90;;;21.20;74.80;;;;;;5074449;28;20168;-38
2021/03/25 01:03:03;;;;;;;1999.90;999.90;;;21.30;74.80;;;;;;5074326;28;20200;-36
2021/03/25 01:05:30;;;;;;;1999.90;999.90;;;21.20;75.00;;;;;;5074249;28;20601;-37
2021/03/25 01:07:58;;;;;;;1999.90;999.90;;;21.20;74.90;;;;;;5074089;28;20169;-36
2021/03/25 01:10:38;;;;;;;1999.90;999.90;;;21.20;75.20;;;;;;5074095;28;20600;-36
2021/03/25 01:13:15;;;;;;;1999.90;999.90;;;21.10;76.20;;;;;;5074126;28;20156;-37
2021/03/25 01:15:42;;;;;;;1999.90;999.90;;;21.10;75.60;;;;;;5074022;28;20160;-36
2021/03/25 01:18:09;;;;;;;1999.90;999.90;;;21.00;76.10;;;;;;5073936;28;20234;-36
2021/03/25 01:20:41;;;;;;;1999.90;999.90;;;21.10;76.00;;;;;;5074028;28;20646;-37
2021/03/25 01:23:09;;;;;;;1999.90;999.90;;;21.00;76.30;;;;;;5073963;28;20244;-36
2021/03/25 01:25:37;;;;;;;1999.90;999.90;;;21.00;76.90;;;;;;5073929;28;20225;-37
2021/03/25 01:28:06;;;;;;;1999.90;999.90;;;20.90;76.80;;;;;;5073511;28;20247;-37
2021/03/25 01:30:34;;;;;;;1999.90;999.90;;;20.90;77.90;;;;;;5073796;28;20168;-35
2021/03/25 01:33:02;;;;;;;1999.90;999.90;;;20.90;77.10;;;;;;5073685;28;20555;-36
2021/03/25 01:35:29;;;;;;;1999.90;999.90;;;20.90;77.10;;;;;;5073526;28;20278;-39
2021/03/25 01:37:56;;;;;;;1999.90;999.90;;;20.90;77.00;;;;;;5073610;28;20168;-36
2021/03/25 01:40:26;;;;;;;1999.90;999.90;;;20.90;77.00;;;;;;5073504;28;20164;-47
2021/03/25 01:43:13;;;;;;;1999.90;999.90;;;20.90;77.20;;;;;;5073474;28;20568;-36
2021/03/25 01:45:55;;;;;;;1999.90;999.90;;;20.80;77.60;;;;;;5073337;28;20259;-39
2021/03/25 01:48:32;;;;;;;1999.90;999.90;;;20.70;78.30;;;;;;5073309;28;20673;-38
2021/03/25 01:51:05;;;;;;;1999.90;999.90;;;20.60;78.70;;;;;;5073372;28;20526;-37
2021/03/25 01:53:31;;;;;;;1999.90;999.90;;;20.50;79.10;;;;;;5073406;28;20627;-36
2021/03/25 01:56:21;;;;;;;1999.90;999.90;;;20.40;79.40;;;;;;5073279;28;20172;-36
2021/03/25 01:59:09;;;;;;;1999.90;999.90;;;20.50;79.50;;;;;;5072358;28;20188;-39
2021/03/25 02:01:45;;;;;;;1999.90;999.90;;;20.40;79.90;;;;;;5073396;28;20172;-38
2021/03/25 02:04:43;;;;;;;1999.90;999.90;;;20.30;80.10;;;;;;5073268;28;20152;-37
2021/03/25 02:07:15;;;;;;;1999.90;999.90;;;20.40;80.20;;;;;;5073322;28;20192;-36
2021/03/25 02:09:54;;;;;;;1999.90;999.90;;;20.40;80.50;;;;;;5073068;28;20191;-36
2021/03/25 02:12:42;;;;;;;1999.90;999.90;;;20.20;80.90;;;;;;5073118;28;20181;-37
2021/03/25 02:15:21;;;;;;;1999.90;999.90;;;20.20;81.20;;;;;;5073165;28;20164;-36
2021/03/25 02:18:03;;;;;;;1999.90;999.90;;;20.30;81.30;;;;;;5073165;28;20160;-38
2021/03/25 02:20:52;;;;;;;1999.90;999.90;;;20.30;81.40;;;;;;5073045;28;20167;-36
2021/03/25 02:23:24;;;;;;;1999.90;999.90;;;20.30;81.40;;;;;;5072982;28;20160;-37
2021/03/25 02:26:03;;;;;;;1999.90;999.90;;;20.20;81.50;;;;;;5073046;28;20161;-38
2021/03/25 02:28:49;;;;;;;1999.90;999.90;;;20.20;81.80;;;;;;5072719;28;20222;-36
2021/03/25 02:31:24;;;;;;;1999.90;999.90;;;20.20;81.50;;;;;;5072822;28;20210;-36
2021/03/25 02:33:56;;;;;;;1999.90;999.90;;;20.20;80.50;;;;;;5072905;28;20162;-36
2021/03/25 02:36:54;;;;;;;1999.90;999.90;;;20.00;81.00;;;;;;5072777;28;20587;-37
2021/03/25 02:39:30;;;;;;;1999.90;999.90;;;19.90;81.70;;;;;;5072447;28;20271;-36
2021/03/25 02:41:59;;;;;;;1999.90;999.90;;;20.00;81.50;;;;;;5072807;28;20164;-37
2021/03/25 02:44:38;;;;;;;1999.90;999.90;;;19.90;81.80;;;;;;5072679;28;20263;-35
2021/03/25 02:47:09;;;;;;;1999.90;999.90;;;19.90;81.60;;;;;;5073058;28;20491;-36
2021/03/25 02:49:59;;;;;;;1999.90;999.90;;;19.90;81.90;;;;;;5072627;28;20196;-36
2021/03/25 02:52:31;;;;;;;1999.90;999.90;;;19.70;82.10;;;;;;5072724;28;20167;-36
2021/03/25 02:55:02;;;;;;;1999.90;999.90;;;19.70;82.70;;;;;;5072665;28;20160;-36
2021/03/25 02:57:32;;;;;;;1999.90;999.90;;;19.70;82.80;;;;;;5072714;28;20161;-37
2021/03/25 03:00:04;;;;;;;1999.90;999.90;;;19.80;82.60;;;;;;5072736;28;20149;-36
2021/03/25 03:02:40;;;;;;;1999.90;999.90;;;19.80;82.60;;;;;;5072570;28;20155;-36
2021/03/25 03:05:24;;;;;;;1999.90;999.90;;;19.80;82.40;;;;;;5072658;28;20679;-43
2021/03/25 03:08:17;;;;;;;1999.90;999.90;;;19.80;82.20;;;;;;5072569;28;20157;-36
2021/03/25 03:10:52;;;;;;;1999.90;999.90;;;19.80;81.90;;;;;;5067869;28;20192;-36
2021/03/25 03:13:21;;;;;;;1999.90;999.90;;;19.80;81.80;;;;;;5076394;28;20206;-38
2021/03/25 03:15:55;;;;;;;1999.90;999.90;;;19.80;81.40;;;;;;5076346;28;20279;-39
2021/03/25 03:19:02;;;;;;;1999.90;999.90;;;19.80;81.60;;;;;;5076185;28;20255;-39
2021/03/25 03:21:54;;;;;;;1999.90;999.90;;;19.80;81.50;;;;;;5075862;28;20258;-37
2021/03/25 03:24:21;;;;;;;1999.90;999.90;;;19.70;82.10;;;;;;5076109;28;20521;-37
2021/03/25 03:26:59;;;;;;;1999.90;999.90;;;19.60;82.60;;;;;;5076093;28;20164;-37
2021/03/25 03:29:28;;;;;;;1999.90;999.90;;;19.60;82.70;;;;;;5075763;28;20690;-40
2021/03/25 03:32:34;;;;;;;1999.90;999.90;;;19.60;82.90;;;;;;5076061;28;20188;-36
2021/03/25 03:35:13;;;;;;;1999.90;999.90;;;19.60;83.10;;;;;;5074310;28;20642;-37
2021/03/25 03:37:48;;;;;;;1999.90;999.90;;;19.60;82.70;;;;;;5075953;28;20157;-39
2021/03/25 03:40:23;;;;;;;1999.90;999.90;;;19.50;83.00;;;;;;5075999;28;20155;-38
2021/03/25 03:42:51;;;;;;;1999.90;999.90;;;19.50;83.20;;;;;;5075876;28;20267;-37
2021/03/25 03:45:22;;;;;;;1999.90;999.90;;;19.50;83.20;;;;;;5075970;28;20574;-38
2021/03/25 03:47:51;;;;;;;1999.90;999.90;;;19.50;83.10;;;;;;5075677;28;20682;-36
2021/03/25 03:50:33;;;;;;;1999.90;999.90;;;19.50;83.30;;;;;;5075712;28;20199;-37
2021/03/25 03:53:00;;;;;;;1999.90;999.90;;;19.50;83.90;;;;;;5075677;28;20156;-36
2021/03/25 03:55:27;;;;;;;1999.90;999.90;;;19.50;82.60;;;;;;5075575;28;20161;-38
2021/03/25 03:58:24;;;;;;;1999.90;999.90;;;19.40;83.20;;;;;;5075486;28;20157;-36
2021/03/25 04:01:16;;;;;;;1999.90;999.90;;;19.40;83.60;;;;;;5075553;28;20177;-36
2021/03/25 04:03:48;;;;;;;1999.90;999.90;;;19.30;83.90;;;;;;5075087;28;20208;-36
2021/03/25 04:06:32;;;;;;;1999.90;999.90;;;19.30;83.70;;;;;;5075592;28;20161;-37
2021/03/25 04:09:06;;;;;;;1999.90;999.90;;;19.30;83.70;;;;;;5075339;28;20223;-36
2021/03/25 04:11:58;;;;;;;1999.90;999.90;;;19.30;84.10;;;;;;5075359;28;20548;-36
2021/03/25 04:14:50;;;;;;;1999.90;999.90;;;19.20;84.50;;;;;;5075265;28;20153;-36
2021/03/25 04:17:27;;;;;;;1999.90;999.90;;;19.30;84.70;;;;;;5070317;28;20189;-36
2021/03/25 04:19:55;;;;;;;1999.90;999.90;;;19.20;84.80;;;;;;5075132;28;20206;-36
2021/03/25 04:22:30;;;;;;;1999.90;999.90;;;19.20;84.50;;;;;;5074629;28;20529;-36
2021/03/25 04:35:37;;;;;;;1999.90;999.90;;;19.20;83.20;;;;;;5070218;28;21053;-36
2021/03/25 04:38:04;;;;;;;1999.90;999.90;;;19.20;84.10;;;;;;5070071;28;20173;-36
2021/03/25 04:40:34;;;;;;;1999.90;999.90;;;19.30;84.10;;;;;;5069924;28;20635;-36
2021/03/25 04:43:01;;;;;;;1999.90;999.90;;;19.20;84.00;;;;;;5069968;28;20296;-38
2021/03/25 04:45:43;;;;;;;1999.90;999.90;;;19.20;83.90;;;;;;5069897;28;20635;-35
2021/03/25 04:48:14;;;;;;;1999.90;999.90;;;19.10;84.40;;;;;;5068658;28;20169;-38
2021/03/25 04:50:46;;;;;;;1999.90;999.90;;;19.20;84.50;;;;;;5070091;28;20556;-39
2021/03/25 04:53:26;;;;;;;1999.90;999.90;;;19.10;85.10;;;;;;5069783;28;20518;-45
2021/03/25 04:55:53;;;;;;;1999.90;999.90;;;19.10;84.70;;;;;;5069803;28;20244;-38
2021/03/25 04:58:34;;;;;;;1999.90;999.90;;;19.10;84.70;;;;;;5070080;28;20525;-38
2021/03/25 05:01:17;;;;;;;1999.90;999.90;;;19.10;85.10;;;;;;5069729;28;20164;-38
2021/03/25 05:03:46;;;;;;;1999.90;999.90;;;19.20;84.80;;;;;;5069574;28;20253;-37
2021/03/25 05:06:19;;;;;;;1999.90;999.90;;;19.10;84.90;;;;;;5069474;28;20647;-36
2021/03/25 05:08:49;;;;;;;1999.90;999.90;;;19.00;85.30;;;;;;5069601;28;20153;-36
2021/03/25 05:11:25;;;;;;;1999.90;999.90;;;19.10;85.30;;;;;;5069480;28;20598;-36
2021/03/25 05:13:57;;;;;;;1999.90;999.90;;;19.00;85.00;;;;;;5069288;28;20161;-36
2021/03/25 05:16:41;;;;;;;1999.90;999.90;;;19.10;85.20;;;;;;5069247;28;20650;-36
2021/03/25 05:19:17;;;;;;;1999.90;999.90;;;19.00;85.40;;;;;;5069205;28;20153;-37
2021/03/25 05:22:11;;;;;;;1999.90;999.90;;;19.00;85.30;;;;;;5069123;28;20531;-44
2021/03/25 05:24:46;;;;;;;1999.90;999.90;;;19.00;85.30;;;;;;5068999;28;20200;-40
2021/03/25 05:27:45;;;;;;;1999.90;999.90;;;18.90;85.30;;;;;;5068980;28;20622;-35
2021/03/25 05:30:25;;;;;;;1999.90;999.90;;;18.90;85.40;;;;;;5046026;28;20434;-44
2021/03/25 05:32:58;;;;;;;1999.90;999.90;;;18.90;85.70;;;;;;5068750;28;20222;-35
2021/03/25 05:35:30;;;;;;;1999.90;999.90;;;18.90;85.90;;;;;;5061132;28;20259;-35
2021/03/25 05:37:57;;;;;;;1999.90;999.90;;;18.90;86.30;;;;;;5055297;28;20181;-35
2021/03/25 05:40:32;;;;;;;1999.90;999.90;;;18.90;86.40;;;;;;5055435;28;20525;-36
2021/03/25 05:43:23;;;;;;;1999.90;999.90;;;19.00;86.00;;;;;;5054812;28;20163;-36
2021/03/25 05:46:16;;;;;;;1999.90;999.90;;;19.20;86.00;;;;;;5055298;28;20165;-37
2021/03/25 05:49:03;;;;;;;1999.90;999.90;;;19.30;85.20;;;;;;5053249;28;20238;-36
2021/03/25 05:51:49;;;;;;;1999.90;999.90;;;19.40;84.70;;;;;;5055226;28;20154;-37
2021/03/25 05:54:36;;;;;;;1999.90;999.90;;;19.50;84.00;;;;;;5055266;28;20624;-38
2021/03/25 05:57:38;;;;;;;1999.90;999.90;;;19.70;83.20;;;;;;5035408;28;20158;-37
2021/03/25 06:00:08;;;;;;;1999.90;999.90;;;20.00;81.00;;;;;;5054003;28;20161;-41
2021/03/25 06:02:49;;;;;;;1999.90;999.90;;;20.30;80.40;;;;;;5055049;28;20173;-37
2021/03/25 06:05:17;;;;;;;1999.90;999.90;;;20.50;79.60;;;;;;5054898;28;20176;-40
2021/03/25 06:08:11;;;;;;;1999.90;999.90;;;20.50;78.70;;;;;;5053622;28;21377;-41
2021/03/25 06:10:56;;;;;;;1999.90;999.90;;;20.70;78.20;;;;;;5054154;28;20627;-44
2021/03/25 06:13:25;;;;;;;1999.90;999.90;;;20.90;76.90;;;;;;5054002;28;20173;-38
2021/03/25 06:16:23;;;;;;;1999.90;999.90;;;21.10;76.60;;;;;;5053072;28;20706;-38
2021/03/25 06:19:15;;;;;;;1999.90;999.90;;;21.20;75.60;;;;;;5053187;28;20673;-38
2021/03/25 06:22:07;;;;;;;1999.90;999.90;;;21.30;75.10;;;;;;5050860;28;20169;-41
2021/03/25 06:24:53;;;;;;;1999.90;999.90;;;21.40;74.30;;;;;;5052616;28;20201;-39
2021/03/25 06:27:38;;;;;;;1999.90;999.90;;;21.60;73.80;;;;;;5052196;28;20169;-37
2021/03/25 06:30:20;;;;;;;1999.90;999.90;;;21.70;73.40;;;;;;5050393;28;20169;-39
2021/03/25 06:33:00;;;;;;;1999.90;999.90;;;21.80;74.30;;;;;;5053495;28;20165;-36
2021/03/25 06:35:29;;;;;;;1999.90;999.90;;;22.00;73.40;;;;;;5053148;28;20216;-36
2021/03/25 06:38:24;;;;;;;1999.90;999.90;;;22.10;73.30;;;;;;5053394;28;20177;-37
2021/03/25 06:41:03;;;;;;;1999.90;999.90;;;22.20;72.80;;;;;;5042790;28;20181;-37
2021/03/25 06:43:37;;;;;;;1999.90;999.90;;;22.40;72.20;;;;;;5051707;28;20579;-40
2021/03/25 06:46:22;;;;;;;1999.90;999.90;;;22.50;71.20;;;;;;5052787;28;20243;-34
2021/03/25 06:48:54;;;;;;;1999.90;999.90;;;22.70;70.60;;;;;;5053417;28;20244;-36
2021/03/25 06:51:23;;;;;;;1999.90;999.90;;;22.80;70.20;;;;;;5052211;28;20248;-37
2021/03/25 06:54:15;;;;;;;1999.90;999.90;;;23.00;69.20;;;;;;5053310;28;20204;-47
2021/03/25 06:56:50;;;;;;;1999.90;999.90;;;23.30;67.70;;;;;;5048303;28;20181;-36
2021/03/25 06:59:38;;;;;;;1999.90;999.90;;;23.30;67.50;;;;;;5053111;28;20677;-36
2021/03/25 07:02:17;;;;;;;1999.90;999.90;;;23.40;66.50;;;;;;5053026;28;20184;-39
2021/03/25 07:04:46;;;;;;;1999.90;999.90;;;23.50;66.20;;;;;;5052573;28;20292;-36
2021/03/25 07:07:23;;;;;;;1999.90;999.90;;;23.60;66.50;;;;;;5053064;28;20623;-36
2021/03/25 07:09:51;;;;;;;1999.90;999.90;;;23.80;65.90;;;;;;5047195;28;20243;-44
2021/03/25 07:12:23;;;;;;;1999.90;999.90;;;24.00;65.50;;;;;;5052198;28;20173;-37
2021/03/25 07:14:51;;;;;;;1999.90;999.90;;;24.20;65.10;;;;;;5052722;28;20622;-40
2021/03/25 07:17:31;;;;;;;1999.90;999.90;;;24.30;63.90;;;;;;5041226;28;20169;-36
2021/03/25 07:20:07;;;;;;;1999.90;999.90;;;24.50;63.60;;;;;;5052254;28;20160;-36
2021/03/25 07:22:34;;;;;;;1999.90;999.90;;;24.70;62.80;;;;;;5053085;28;20161;-36
2021/03/25 07:25:23;;;;;;;1999.90;999.90;;;24.80;62.00;;;;;;5051609;28;20220;-37
2021/03/25 07:27:50;;;;;;;1999.90;999.90;;;24.90;61.10;;;;;;5052574;28;21062;-39
2021/03/25 07:30:23;;;;;;;1999.90;999.90;;;25.20;61.20;;;;;;5052401;28;20661;-45
2021/03/25 07:33:05;;;;;;;1999.90;999.90;;;25.40;60.10;;;;;;5052059;28;20165;-41
2021/03/25 07:35:36;;;;;;;1999.90;999.90;;;25.60;59.10;;;;;;5052792;28;20212;-45
2021/03/25 07:38:24;;;;;;;1999.90;999.90;;;25.90;58.60;;;;;;5052238;28;20165;-47
2021/03/25 07:41:18;;;;;;;1999.90;999.90;;;26.10;58.50;;;;;;5051695;28;20169;-40
2021/03/25 07:43:54;;;;;;;1999.90;999.90;;;26.40;57.30;;;;;;5051916;28;20192;-43
2021/03/25 07:46:29;;;;;;;1999.90;999.90;;;26.70;55.90;;;;;;5051819;28;20205;-41
2021/03/25 07:49:12;;;;;;;1999.90;999.90;;;27.10;54.90;;;;;;5051847;28;20180;-39
2021/03/25 07:51:58;;;;;;;1999.90;999.90;;;27.50;53.90;;;;;;5049780;28;20172;-42
2021/03/25 07:54:28;;;;;;;1999.90;999.90;;;28.00;52.40;;;;;;5051709;28;20236;-41
2021/03/25 07:57:16;;;;;;;1999.90;999.90;;;28.40;50.90;;;;;;5052347;28;20667;-42
2021/03/25 07:59:46;;;;;;;1999.90;999.90;;;29.10;49.50;;;;;;5051255;28;20243;-44
2021/03/25 08:02:33;;;;;;;1999.90;999.90;;;29.30;49.70;;;;;;5052033;28;20197;-41
2021/03/25 08:05:24;;;;;;;1999.90;999.90;;;30.00;47.00;;;;;;5051819;28;20193;-41
2021/03/25 08:07:54;;;;;;;1999.90;999.90;;;30.50;46.30;;;;;;5051460;28;20253;-41
2021/03/25 08:10:32;;;;;;;1999.90;999.90;;;31.20;44.70;;;;;;5052190;28;20172;-44
2021/03/25 08:13:19;;;;;;;1999.90;999.90;;;31.30;43.20;;;;;;5051793;28;20627;-42
2021/03/25 08:15:51;;;;;;;1999.90;999.90;;;31.70;43.10;;;;;;5051641;28;20173;-39
2021/03/25 08:18:20;;;;;;;1999.90;999.90;;;32.20;41.70;;;;;;5051366;28;20511;-40
2021/03/25 08:20:59;;;;;;;1999.90;999.90;;;32.60;40.30;;;;;;5051395;28;20685;-46
2021/03/25 08:23:54;;;;;;;1999.90;999.90;;;32.70;40.50;;;;;;5052123;28;20211;-41
2021/03/25 08:26:50;;;;;;;1999.90;999.90;;;33.30;39.50;;;;;;5047775;28;20640;-39
2021/03/25 08:29:20;;;;;;;1999.90;999.90;;;33.80;38.70;;;;;;5048169;28;20173;-41
2021/03/25 08:32:14;;;;;;;1999.90;999.90;;;33.80;38.90;;;;;;5051616;28;20149;-50
2021/03/25 08:34:56;;;;;;;1999.90;999.90;;;34.00;37.30;;;;;;5050779;28;20399;-41
2021/03/25 08:37:35;;;;;;;1999.90;999.90;;;34.40;36.60;;;;;;5051264;28;20197;-39
2021/03/25 08:40:08;;;;;;;1999.90;999.90;;;35.00;35.40;;;;;;5047825;28;20188;-44
2021/03/25 08:42:51;;;;;;;1999.90;999.90;;;34.70;34.60;;;;;;5041126;28;20161;-42
2021/03/25 08:45:32;;;;;;;1999.90;999.90;;;34.50;34.80;;;;;;5042680;28;20573;-39
2021/03/25 08:48:29;;;;;;;1999.90;999.90;;;34.90;33.90;;;;;;5051860;28;20169;-54
2021/03/25 08:51:05;;;;;;;1999.90;999.90;;;34.70;33.50;;;;;;5034295;28;20173;-42
2021/03/25 08:53:41;;;;;;;1999.90;999.90;;;34.70;33.00;;;;;;5051471;28;20172;-40
2021/03/25 08:56:28;;;;;;;1999.90;999.90;;;34.80;33.10;;;;;;5048558;28;20172;-39
2021/03/25 08:58:59;;;;;;;1999.90;999.90;;;34.50;33.30;;;;;;5051289;28;20231;-45
2021/03/25 09:01:32;;;;;;;1999.90;999.90;;;34.60;33.40;;;;;;5051813;28;20161;-39
2021/03/25 09:04:09;;;;;;;1999.90;999.90;;;34.90;33.10;;;;;;5050988;28;20575;-38
2021/03/25 09:06:39;;;;;;;1999.90;999.90;;;34.50;32.70;;;;;;5051223;28;20593;-56
2021/03/25 09:09:29;;;;;;;1999.90;999.90;;;34.60;33.10;;;;;;5051555;28;20162;-43
2021/03/25 09:11:57;;;;;;;1999.90;999.90;;;34.90;32.40;;;;;;5054819;28;20723;-48
2021/03/25 09:14:26;;;;;;;1999.90;999.90;;;34.80;32.70;;;;;;5043612;28;20631;-43
2021/03/25 09:17:05;;;;;;;1999.90;999.90;;;34.50;33.80;;;;;;5054068;28;20595;-40
2021/03/25 09:19:40;;;;;;;1999.90;999.90;;;35.00;33.00;;;;;;5054725;28;20173;-48
2021/03/25 09:22:07;;;;;;;1999.90;999.90;;;35.60;32.30;;;;;;5055038;28;20153;-42
2021/03/25 09:24:35;;;;;;;1999.90;999.90;;;35.70;31.40;;;;;;5054363;28;20209;-42
2021/03/25 09:27:08;;;;;;;1999.90;999.90;;;36.10;31.30;;;;;;5055177;28;20201;-40
2021/03/25 09:30:03;;;;;;;1999.90;999.90;;;35.90;31.80;;;;;;5054678;28;20161;-39
2021/03/25 09:32:39;;;;;;;1999.90;999.90;;;35.90;31.90;;;;;;5054072;28;20262;-43
2021/03/25 09:35:37;;;;;;;1999.90;999.90;;;35.80;31.40;;;;;;5054319;28;20246;-41
2021/03/25 09:38:04;;;;;;;1999.90;999.90;;;35.30;32.60;;;;;;5054400;28;20158;-40
2021/03/25 09:40:52;;;;;;;1999.90;999.90;;;35.30;33.00;;;;;;5054716;28;20169;-45
2021/03/25 09:43:38;;;;;;;1999.90;999.90;;;35.40;32.60;;;;;;5054387;28;20221;-39
2021/03/25 09:46:59;;;;;;;1999.90;999.90;;;35.20;32.60;;;;;;5053602;28;20173;-46
2021/03/25 09:49:33;;;;;;;1999.90;999.90;;;35.40;32.30;;;;;;5052256;28;20659;-39
2021/03/25 09:52:12;;;;;;;1999.90;999.90;;;35.80;31.80;;;;;;5051912;28;20294;-41
2021/03/25 09:54:40;;;;;;;1999.90;999.90;;;35.70;31.60;;;;;;5053722;28;20552;-58
2021/03/25 09:57:19;;;;;;;1999.90;999.90;;;35.20;32.30;;;;;;5054278;28;20181;-45
2021/03/25 09:59:48;;;;;;;1999.90;999.90;;;35.70;31.40;;;;;;5053721;28;20212;-50
2021/03/25 10:02:38;;;;;;;1999.90;999.90;;;35.80;31.10;;;;;;5054626;28;20532;-56
2021/03/25 10:05:41;;;;;;;1999.90;999.90;;;36.10;30.60;;;;;;5054084;28;20213;-39
2021/03/25 10:08:11;;;;;;;1999.90;999.90;;;36.10;30.70;;;;;;5054460;28;20192;-45
2021/03/25 10:10:59;;;;;;;1999.90;999.90;;;36.00;30.20;;;;;;5053919;28;20184;-46
2021/03/25 10:13:41;;;;;;;1999.90;999.90;;;36.10;30.60;;;;;;5033617;28;20198;-48
2021/03/25 10:16:35;;;;;;;1999.90;999.90;;;36.10;30.10;;;;;;5034112;28;20178;-42
2021/03/25 10:19:11;;;;;;;1999.90;999.90;;;35.80;30.40;;;;;;5050499;28;20234;-42
2021/03/25 10:21:54;;;;;;;1999.90;999.90;;;35.60;30.10;;;;;;5053328;28;20165;-52
2021/03/25 10:24:35;;;;;;;1999.90;999.90;;;35.70;30.00;;;;;;5053969;28;20820;-47
2021/03/25 10:27:20;;;;;;;1999.90;999.90;;;36.20;29.70;;;;;;5053556;28;20369;-56
2021/03/25 10:29:48;;;;;;;1999.90;999.90;;;36.40;29.80;;;;;;5053926;28;20643;-39
2021/03/25 10:32:43;;;;;;;1999.90;999.90;;;36.30;29.90;;;;;;5053746;28;20181;-45
2021/03/25 10:35:19;;;;;;;1999.90;999.90;;;36.50;29.40;;;;;;5051735;28;20221;-48
2021/03/25 10:37:51;;;;;;;1999.90;999.90;;;36.20;29.10;;;;;;5053794;28;20165;-59
2021/03/25 10:40:37;;;;;;;1999.90;999.90;;;36.00;29.90;;;;;;5053222;28;20166;-49
2021/03/25 10:43:13;;;;;;;1999.90;999.90;;;35.90;29.70;;;;;;5053254;28;20169;-38
2021/03/25 10:45:53;;;;;;;1999.90;999.90;;;35.70;30.20;;;;;;5053823;28;20650;-55
2021/03/25 10:48:42;;;;;;;1999.90;999.90;;;35.70;30.20;;;;;;5052975;28;20172;-45
2021/03/25 10:51:12;;;;;;;1999.90;999.90;;;35.90;30.00;;;;;;5053302;28;20523;-53
2021/03/25 10:53:42;;;;;;;1999.90;999.90;;;35.30;30.20;;;;;;5054251;28;20240;-45
2021/03/25 10:56:18;;;;;;;1999.90;999.90;;;35.00;30.70;;;;;;5054072;28;20252;-42
2021/03/25 10:59:17;;;;;;;1999.90;999.90;;;35.40;30.80;;;;;;5053188;28;20525;-41
2021/03/25 11:01:49;;;;;;;1999.90;999.90;;;35.40;30.10;;;;;;5053434;28;20189;-41
2021/03/25 11:04:21;;;;;;;1999.90;999.90;;;35.50;30.00;;;;;;5053523;28;20208;-38
2021/03/25 11:06:49;;;;;;;1999.90;999.90;;;35.60;30.10;;;;;;5053892;28;20248;-37
2021/03/25 11:09:27;;;;;;;1999.90;999.90;;;35.70;29.70;;;;;;5053861;28;20177;-37
2021/03/25 11:12:04;;;;;;;1999.90;999.90;;;35.80;30.30;;;;;;5053923;28;20160;-38
2021/03/25 11:14:40;;;;;;;1999.90;999.90;;;35.80;30.00;;;;;;5053841;28;20157;-37
2021/03/25 11:17:21;;;;;;;1999.90;999.90;;;35.90;29.70;;;;;;5053626;28;20164;-37
2021/03/25 11:19:53;;;;;;;1999.90;999.90;;;35.50;29.80;;;;;;5053333;28;20169;-39
2021/03/25 11:22:21;;;;;;;1999.90;999.90;;;35.40;30.20;;;;;;5053675;28;20639;-37
2021/03/25 11:24:49;;;;;;;1999.90;999.90;;;35.90;30.00;;;;;;5053526;28;20242;-37
2021/03/25 11:27:22;;;;;;;1999.90;999.90;;;36.10;29.10;;;;;;5053338;28;20523;-37
2021/03/25 11:30:01;;;;;;;1999.90;999.90;;;36.30;28.40;;;;;;5053437;28;20165;-37
2021/03/25 11:32:40;;;;;;;1999.90;999.90;;;36.10;28.60;;;;;;5052919;28;20235;-37
2021/03/25 11:35:24;;;;;;;1999.90;999.90;;;36.30;28.40;;;;;;5053251;28;20216;-37
2021/03/25 11:37:52;;;;;;;1999.90;999.90;;;36.30;28.90;;;;;;5053458;28;20622;-37
2021/03/25 11:40:37;;;;;;;1999.90;999.90;;;36.50;27.90;;;;;;5053244;28;20215;-37
2021/03/25 11:43:14;;;;;;;1999.90;999.90;;;36.20;28.00;;;;;;5053395;28;20523;-37
2021/03/25 11:45:48;;;;;;;1999.90;999.90;;;36.30;28.40;;;;;;5053289;28;20158;-36
2021/03/25 11:48:29;;;;;;;1999.90;999.90;;;36.20;28.60;;;;;;5053327;28;20248;-37
2021/03/25 11:51:15;;;;;;;1999.90;999.90;;;35.80;28.50;;;;;;5052993;28;20612;-36
2021/03/25 11:53:44;;;;;;;1999.90;999.90;;;36.00;28.30;;;;;;5053023;28;20182;-39
2021/03/25 11:56:38;;;;;;;1999.90;999.90;;;36.20;27.70;;;;;;5052804;28;20192;-37
2021/03/25 11:59:14;;;;;;;1999.90;999.90;;;36.00;27.50;;;;;;5051622;28;20184;-37
2021/03/25 12:01:42;;;;;;;1999.90;999.90;;;36.00;27.90;;;;;;5052891;28;20153;-37
2021/03/25 12:04:15;;;;;;;1999.90;999.90;;;36.10;27.40;;;;;;5052984;28;20201;-37
2021/03/25 12:07:04;;;;;;;1999.90;999.90;;;36.20;27.60;;;;;;5052859;28;20204;-46
2021/03/25 12:09:34;;;;;;;1999.90;999.90;;;36.30;27.40;;;;;;5052888;28;20580;-37
2021/03/25 12:12:01;;;;;;;1999.90;999.90;;;36.30;27.20;;;;;;5052752;28;20185;-37
2021/03/25 12:14:29;;;;;;;1999.90;999.90;;;36.40;27.20;;;;;;5052810;28;20631;-36
2021/03/25 12:17:01;;;;;;;1999.90;999.90;;;36.30;27.00;;;;;;5052685;28;20207;-37
2021/03/25 12:19:33;;;;;;;1999.90;999.90;;;36.40;27.00;;;;;;5052499;28;20169;-37
2021/03/25 12:22:00;;;;;;;1999.90;999.90;;;36.50;26.70;;;;;;5052634;28;20177;-36
2021/03/25 12:24:27;;;;;;;1999.90;999.90;;;36.60;26.70;;;;;;5052475;28;20243;-37
2021/03/25 12:26:53;;;;;;;1999.90;999.90;;;36.60;26.50;;;;;;5052961;28;20565;-37
2021/03/25 12:29:20;;;;;;;1999.90;999.90;;;36.40;26.90;;;;;;5052604;28;20165;-37
2021/03/25 12:31:47;;;;;;;1999.90;999.90;;;36.40;26.50;;;;;;5052650;28;20165;-37
2021/03/25 12:34:16;;;;;;;1999.90;999.90;;;36.40;26.70;;;;;;5052341;28;20270;-37
2021/03/25 12:36:43;;;;;;;1999.90;999.90;;;36.20;26.70;;;;;;5052742;28;20627;-37
2021/03/25 12:39:10;;;;;;;1999.90;999.90;;;35.90;26.80;;;;;;5052619;28;20662;-38
2021/03/25 12:41:44;;;;;;;1999.90;999.90;;;35.80;27.70;;;;;;5052680;28;20169;-36
2021/03/25 12:44:12;;;;;;;1999.90;999.90;;;35.60;28.30;;;;;;5052545;28;20201;-40
2021/03/25 12:46:40;;;;;;;1999.90;999.90;;;35.80;27.70;;;;;;5056126;28;20180;-37
2021/03/25 12:49:08;;;;;;;1999.90;999.90;;;36.00;27.90;;;;;;5056653;28;20250;-37
2021/03/25 12:51:35;;;;;;;1999.90;999.90;;;36.00;27.80;;;;;;5056495;28;20173;-37
2021/03/25 12:54:02;;;;;;;1999.90;999.90;;;36.10;27.40;;;;;;5056344;28;20223;-37
2021/03/25 12:56:38;;;;;;;1999.90;999.90;;;36.20;27.70;;;;;;5056343;28;20691;-36